Aeroporto :
LOGIN :

Iscrizione | Disclaimer

   EN    FR    IT 

 










Sommario :    VFR   VFR Marginale   IFR   IFR Intensivo   IFR Molto Intensivo
Visibilità : 
Base nubi : 
>= 8 km
>= 3000ft
5 / 8 km
1000 / 3000 ft
1500m / 5 km
500 / 1000 ft
800 / 1500m
200 / 500 ft
< 800m
< 200 ft
Simboli :   Temporali  Nebbia  Neve Forte  Precipitazioni Forti  Vento > 20 kt
SIGMETs :   Varie  Temporali  Ghiacco  Turbolenza  Onda orograficha  Ceneri Vulcaniche






- Altitudine del aeroporto : 124 ft
- Codice IATA : NHT


EGWU - RAF Northolt

ULTIMO METAR :
  • 151225Z 02012KT 9999 FEW015 SCT080 BKN120 08/06 Q1003 NOSIG RMK BLU BLU

METARs OBSOLETI :
  • 151150Z 02012KT 9999 FEW010 BKN070 08/06 Q1003 TEMPO SCT020 RMK BLU TEMPO WHT
  • 151125Z 03012KT 9999 FEW013 BKN080 08/06 Q1004 NOSIG RMK BLU BLU
  • 151050Z 03010KT 9999 FEW010 BKN050 OVC070 07/06 Q1004 TEMPO SCT020
  • 151021Z 02010KT 9999 FEW011 BKN050 07/05 Q1004 TEMPO SCT020 RMK BLU TEMPO WHT
  • 150950Z 02010KT 9999 FEW009 BKN050 OVC070 07/05 Q1004 TEMPO SCT009

TAF TAF EGWU
Valido dal 15 a 12 ore il 16 a 06 ore UTC


151047Z 1512/1606 36012KT 9999 FEW008 BKN045
TEMPO 1512/1518 01016G27KT
PROB40
TEMPO 1512/1516 SCT020
BECMG 1516/1518 -RA BKN018
TEMPO 1518/1524 4000 RA BKN010
BECMG 1600/1603 FEW018 SCT030



MetMap, La meteo Aeronautica in un colpo d'occhio ! - Copyright ORBIFLY Dicembre 2007 - Disclaimer

ORBIFLY MET'MAP TEAM :

Programmazione e sviluppo : Alexandra Zaïnal
Concezione e sviluppo : Baudouin d'Aumeries
Co-Programmazione e sviluppo : Marc-Olivier Méhu
Supporto tecnico e logistico : Manuel Goepfert
Aiuto per la traduzione : Arnaldo La Scala

Contatto : metmap@orbifly.com




FONTI E CREDITI :

   NOAA